Time;durP1;ratioP1;P1;durP2;ratioP2;P2;SDS_P1;SDS_P2;PMS_P1;PMS_P2;Temp;Humidity;BMP_temperature;BMP_pressure;BME280_temperature;BME280_humidity;BME280_pressure;Samples;Min_cycle;Max_cycle;Signal;HPM_P1;HPM_P2
2022/07/24 00:01:39;;;;;;;0.93;0.90;;;15.90;59.80;;;;;;601796;238;26602;-67
2022/07/24 00:04:06;;;;;;;1.98;1.00;;;15.90;59.90;;;;;;609016;232;26946;-66
2022/07/24 00:06:33;;;;;;;1.08;1.08;;;15.90;60.00;;;;;;606435;235;26584;-66
2022/07/24 00:09:01;;;;;;;1.15;0.85;;;15.90;60.60;;;;;;603645;236;26846;-67
2022/07/24 00:11:28;;;;;;;1.35;1.00;;;15.80;60.70;;;;;;602210;236;26573;-66
2022/07/24 00:13:55;;;;;;;1.00;1.00;;;15.80;61.30;;;;;;603326;236;26837;-66
2022/07/24 00:16:22;;;;;;;0.80;0.80;;;15.70;61.30;;;;;;603447;235;26612;-66
2022/07/24 00:18:49;;;;;;;1.25;1.10;;;15.70;61.50;;;;;;602125;236;26600;-66
2022/07/24 00:21:17;;;;;;;0.80;0.80;;;15.70;62.00;;;;;;608459;236;26658;-66
2022/07/24 00:23:45;;;;;;;1.10;1.00;;;15.60;62.40;;;;;;607105;236;26593;-67
2022/07/24 00:26:13;;;;;;;1.20;1.10;;;15.60;62.80;;;;;;602987;236;26612;-66
2022/07/24 00:28:41;;;;;;;3.92;1.20;;;15.50;62.60;;;;;;603681;236;26604;-67
2022/07/24 00:31:08;;;;;;;7.95;1.92;;;15.50;62.50;;;;;;604527;236;26585;-66
2022/07/24 00:33:36;;;;;;;4.05;1.73;;;15.40;64.80;;;;;;601922;238;26818;-66
2022/07/24 00:36:03;;;;;;;1.67;1.17;;;15.40;64.30;;;;;;601684;237;26830;-66
2022/07/24 00:38:31;;;;;;;4.60;1.37;;;15.40;64.60;;;;;;605592;235;26609;-66
2022/07/24 00:40:59;;;;;;;2.10;1.20;;;15.40;65.20;;;;;;604152;235;26599;-66
2022/07/24 00:43:27;;;;;;;3.78;1.12;;;15.30;65.90;;;;;;610216;233;26632;-67
2022/07/24 00:45:54;;;;;;;2.78;1.10;;;15.30;65.90;;;;;;606246;235;27370;-66
2022/07/24 00:48:21;;;;;;;1.65;1.15;;;15.30;65.70;;;;;;611231;234;26583;-66
2022/07/24 00:50:48;;;;;;;2.42;1.20;;;15.30;66.90;;;;;;605138;234;26902;-66
2022/07/24 00:53:16;;;;;;;1.30;1.20;;;15.30;66.70;;;;;;605248;237;26620;-66
2022/07/24 00:55:43;;;;;;;1.20;0.80;;;15.30;66.70;;;;;;603427;233;26885;-66
2022/07/24 00:58:12;;;;;;;1.27;1.10;;;15.30;67.10;;;;;;602268;239;26694;-66
2022/07/24 01:00:39;;;;;;;0.82;0.82;;;15.30;67.30;;;;;;602111;239;26581;-66
2022/07/24 01:03:07;;;;;;;1.00;1.00;;;15.30;68.60;;;;;;601973;238;26589;-66
2022/07/24 01:05:35;;;;;;;0.82;0.80;;;15.20;68.80;;;;;;602014;239;26590;-66
2022/07/24 01:08:03;;;;;;;1.37;1.00;;;15.20;69.40;;;;;;607572;236;26576;-66
2022/07/24 01:10:31;;;;;;;0.90;0.90;;;15.20;70.50;;;;;;610291;236;26624;-66
2022/07/24 01:12:58;;;;;;;1.00;1.00;;;15.10;69.80;;;;;;610284;236;26656;-66
2022/07/24 01:15:25;;;;;;;1.27;0.90;;;15.20;70.20;;;;;;610280;236;26834;-66
2022/07/24 01:17:52;;;;;;;1.37;1.10;;;15.20;70.50;;;;;;610241;232;26639;-66
2022/07/24 01:20:19;;;;;;;1.30;1.20;;;15.20;71.10;;;;;;609983;236;27290;-66
2022/07/24 01:22:47;;;;;;;1.02;1.00;;;15.10;72.20;;;;;;609961;236;26656;-66
2022/07/24 01:25:15;;;;;;;1.73;1.20;;;15.00;73.20;;;;;;609990;236;26642;-66
2022/07/24 01:27:43;;;;;;;1.23;1.15;;;15.00;74.20;;;;;;609946;236;26653;-66
2022/07/24 01:30:11;;;;;;;2.30;1.35;;;15.00;74.20;;;;;;609319;236;26652;-66
2022/07/24 01:32:38;;;;;;;0.90;0.90;;;15.00;74.70;;;;;;609866;235;26659;-66
2022/07/24 01:35:07;;;;;;;1.52;0.98;;;15.00;74.70;;;;;;609993;236;26668;-66
2022/07/24 01:37:34;;;;;;;0.90;0.90;;;15.00;75.30;;;;;;610067;236;26662;-66
2022/07/24 01:40:01;;;;;;;0.93;0.90;;;15.00;75.70;;;;;;609969;236;26862;-66
2022/07/24 01:42:29;;;;;;;2.85;1.15;;;14.90;76.10;;;;;;609943;236;26678;-66
2022/07/24 01:44:56;;;;;;;1.20;1.10;;;14.90;76.50;;;;;;603056;236;26873;-66
2022/07/24 01:47:24;;;;;;;1.00;1.00;;;14.90;77.60;;;;;;601608;239;26664;-66
2022/07/24 01:49:51;;;;;;;0.90;0.90;;;14.80;77.50;;;;;;601767;235;26577;-66
2022/07/24 01:52:19;;;;;;;0.95;0.95;;;14.80;78.60;;;;;;601615;239;26851;-66
2022/07/24 01:54:46;;;;;;;1.25;1.15;;;14.80;78.30;;;;;;602830;237;26580;-66
2022/07/24 01:57:13;;;;;;;0.82;0.80;;;14.80;77.50;;;;;;606133;235;27388;-66
2022/07/24 01:59:40;;;;;;;0.90;0.90;;;14.80;77.80;;;;;;605518;234;26592;-66
2022/07/24 02:02:07;;;;;;;0.75;0.75;;;14.80;78.00;;;;;;611525;234;26804;-66
2022/07/24 02:04:35;;;;;;;0.85;0.85;;;14.70;78.00;;;;;;604429;235;26634;-66
2022/07/24 02:07:03;;;;;;;1.17;1.02;;;14.70;78.00;;;;;;602229;239;26665;-66
2022/07/24 02:09:31;;;;;;;1.00;0.82;;;14.70;77.80;;;;;;603928;238;26643;-66
2022/07/24 02:11:59;;;;;;;0.80;0.80;;;14.70;78.00;;;;;;605114;237;26647;-66
2022/07/24 02:14:26;;;;;;;1.42;1.20;;;14.70;78.00;;;;;;604954;237;26594;-66
2022/07/24 02:16:54;;;;;;;0.80;0.80;;;14.70;78.10;;;;;;604989;238;26606;-66
2022/07/24 02:19:23;;;;;;;1.00;1.00;;;14.70;78.40;;;;;;604975;237;26910;-66
2022/07/24 02:21:48;;;;;;;0.80;0.80;;;14.60;78.20;;;;;;602918;235;26584;-66
2022/07/24 02:24:15;;;;;;;0.90;0.88;;;14.60;78.20;;;;;;601865;235;26839;-66
2022/07/24 02:26:42;;;;;;;1.20;1.10;;;14.60;78.60;;;;;;601901;237;26571;-66
2022/07/24 02:29:10;;;;;;;0.70;0.70;;;14.50;78.60;;;;;;601881;237;26861;-66
2022/07/24 02:31:37;;;;;;;0.75;0.70;;;14.50;78.80;;;;;;604272;232;26593;-66
2022/07/24 02:34:04;;;;;;;0.90;0.90;;;14.50;78.90;;;;;;609959;236;26866;-66
2022/07/24 02:36:31;;;;;;;1.23;0.98;;;14.50;79.40;;;;;;608851;236;26658;-66
2022/07/24 02:38:58;;;;;;;1.70;0.90;;;14.40;79.30;;;;;;605336;236;26782;-66
2022/07/24 02:41:26;;;;;;;0.70;0.70;;;14.40;79.60;;;;;;602870;236;26642;-66
2022/07/24 02:43:54;;;;;;;0.90;0.90;;;14.40;79.50;;;;;;604645;238;26619;-67
2022/07/24 02:46:22;;;;;;;0.90;0.90;;;14.40;79.80;;;;;;603245;236;26617;-67
2022/07/24 02:48:50;;;;;;;0.73;0.70;;;14.30;80.00;;;;;;602506;236;26607;-67
2022/07/24 02:51:18;;;;;;;1.05;0.95;;;14.40;80.40;;;;;;604831;237;26578;-67
2022/07/24 02:53:45;;;;;;;1.20;1.02;;;14.30;80.30;;;;;;603651;237;26867;-67
2022/07/24 02:56:13;;;;;;;1.00;0.90;;;14.30;80.40;;;;;;601673;239;26589;-67
2022/07/24 02:58:40;;;;;;;0.85;0.85;;;14.30;80.80;;;;;;601686;239;27307;-67
2022/07/24 03:01:07;;;;;;;0.80;0.80;;;14.30;81.20;;;;;;601643;237;26604;-67
2022/07/24 03:03:35;;;;;;;2.50;0.80;;;14.30;81.30;;;;;;601653;239;26827;-67
2022/07/24 03:06:02;;;;;;;0.80;0.80;;;14.30;81.50;;;;;;603846;237;26573;-67
2022/07/24 03:08:30;;;;;;;0.90;0.90;;;14.20;82.50;;;;;;605964;237;26820;-67
2022/07/24 03:10:57;;;;;;;0.90;0.90;;;14.20;82.50;;;;;;605683;237;26864;-67
2022/07/24 03:13:25;;;;;;;0.70;0.70;;;14.20;82.60;;;;;;605565;237;26626;-67
2022/07/24 03:15:52;;;;;;;0.75;0.75;;;14.10;83.10;;;;;;605317;237;26800;-67
2022/07/24 03:18:19;;;;;;;1.42;0.85;;;14.10;83.40;;;;;;605304;238;26581;-67
2022/07/24 03:20:46;;;;;;;1.20;0.90;;;14.20;83.30;;;;;;601872;235;26908;-67
2022/07/24 03:23:14;;;;;;;1.00;0.70;;;14.20;83.10;;;;;;602159;235;26653;-67
2022/07/24 03:25:42;;;;;;;0.98;0.95;;;14.20;83.10;;;;;;601692;238;26600;-67
2022/07/24 03:28:10;;;;;;;0.80;0.80;;;14.20;83.00;;;;;;601919;239;26603;-67
2022/07/24 03:30:38;;;;;;;0.82;0.80;;;14.20;82.70;;;;;;601881;237;26602;-67
2022/07/24 03:33:06;;;;;;;1.10;1.00;;;14.20;83.00;;;;;;601971;238;26598;-67
2022/07/24 03:35:34;;;;;;;0.75;0.75;;;14.10;82.90;;;;;;601935;238;26585;-67
2022/07/24 03:38:01;;;;;;;1.00;1.00;;;14.20;82.90;;;;;;601977;237;26569;-67
2022/07/24 03:40:28;;;;;;;1.27;0.80;;;14.20;83.00;;;;;;601919;238;26933;-66
2022/07/24 03:42:56;;;;;;;1.00;0.90;;;14.20;82.90;;;;;;603301;238;26610;-66
2022/07/24 03:45:23;;;;;;;0.82;0.82;;;14.20;82.90;;;;;;604701;237;26604;-67
2022/07/24 03:47:50;;;;;;;1.02;0.98;;;14.10;82.80;;;;;;604742;237;26592;-66
2022/07/24 03:50:18;;;;;;;0.90;0.90;;;14.20;82.90;;;;;;604643;238;26870;-66
2022/07/24 03:52:45;;;;;;;1.08;0.90;;;14.20;82.90;;;;;;604674;237;26618;-66
2022/07/24 03:55:12;;;;;;;0.80;0.80;;;14.20;82.80;;;;;;604670;237;26824;-66
2022/07/24 03:57:39;;;;;;;0.77;0.77;;;14.20;82.60;;;;;;604744;238;26586;-66
2022/07/24 04:00:09;;;;;;;0.93;0.93;;;14.30;82.30;;;;;;604727;237;26827;-66
2022/07/24 04:02:36;;;;;;;0.98;0.90;;;14.30;82.70;;;;;;604732;237;26632;-66
2022/07/24 04:05:03;;;;;;;1.00;0.90;;;14.30;82.70;;;;;;604670;237;26938;-66
2022/07/24 04:07:30;;;;;;;1.10;0.80;;;14.30;82.70;;;;;;604726;238;26816;-66
2022/07/24 04:09:57;;;;;;;0.75;0.75;;;14.30;83.00;;;;;;604710;237;26575;-66
2022/07/24 04:12:25;;;;;;;1.00;1.00;;;14.30;83.10;;;;;;604599;237;26868;-66
2022/07/24 04:14:52;;;;;;;0.90;0.90;;;14.40;83.30;;;;;;604671;238;26590;-66
2022/07/24 04:17:19;;;;;;;0.82;0.82;;;14.40;82.90;;;;;;605485;235;26836;-66
2022/07/24 04:19:46;;;;;;;1.05;1.02;;;14.50;82.80;;;;;;606066;237;26599;-66
2022/07/24 04:22:13;;;;;;;0.80;0.80;;;14.50;82.80;;;;;;605684;232;26594;-66
2022/07/24 04:24:41;;;;;;;1.40;0.85;;;14.60;82.30;;;;;;605581;237;26634;-66
2022/07/24 04:27:09;;;;;;;0.80;0.80;;;14.60;82.20;;;;;;605343;237;26587;-66
2022/07/24 04:29:37;;;;;;;0.98;0.98;;;14.60;82.40;;;;;;608188;235;26571;-66
2022/07/24 04:32:06;;;;;;;2.47;0.93;;;14.70;82.40;;;;;;612333;233;26639;-66
2022/07/24 04:34:34;;;;;;;0.95;0.90;;;14.70;81.90;;;;;;610551;235;26613;-66
2022/07/24 04:37:02;;;;;;;1.02;0.90;;;14.70;81.90;;;;;;602808;235;26597;-66
2022/07/24 04:39:30;;;;;;;1.10;1.00;;;14.80;82.20;;;;;;607321;235;26610;-66
2022/07/24 04:41:57;;;;;;;1.10;1.00;;;14.80;82.20;;;;;;606678;235;26649;-66
2022/07/24 04:44:24;;;;;;;1.08;0.88;;;14.90;81.60;;;;;;611474;235;26638;-66
2022/07/24 04:46:51;;;;;;;0.60;0.60;;;14.90;81.40;;;;;;604991;238;26832;-66
2022/07/24 04:49:18;;;;;;;1.10;0.82;;;15.00;81.70;;;;;;604826;232;26558;-66
2022/07/24 04:51:46;;;;;;;1.00;0.90;;;15.00;80.60;;;;;;604002;237;26819;-66
2022/07/24 04:54:13;;;;;;;2.28;0.93;;;15.00;79.80;;;;;;604856;237;26590;-66
2022/07/24 04:56:40;;;;;;;0.73;0.73;;;15.10;79.60;;;;;;604617;237;26831;-66
2022/07/24 04:59:07;;;;;;;0.90;0.90;;;15.00;79.00;;;;;;604817;237;26596;-66
2022/07/24 05:01:35;;;;;;;0.98;0.98;;;15.10;79.00;;;;;;603135;236;26802;-66
2022/07/24 05:04:02;;;;;;;1.00;1.00;;;15.10;79.10;;;;;;602634;236;26597;-66
2022/07/24 05:06:30;;;;;;;1.00;1.00;;;15.30;78.60;;;;;;611448;234;26641;-66
2022/07/24 05:08:58;;;;;;;1.12;0.93;;;15.40;78.10;;;;;;604767;238;26601;-66
2022/07/24 05:11:26;;;;;;;0.85;0.85;;;15.40;78.10;;;;;;608258;235;26593;-66
2022/07/24 05:13:53;;;;;;;0.80;0.80;;;15.50;77.60;;;;;;609978;236;26661;-66
2022/07/24 05:16:20;;;;;;;1.08;0.82;;;15.60;77.10;;;;;;608488;235;26662;-67
2022/07/24 05:18:47;;;;;;;0.65;0.65;;;15.60;77.10;;;;;;601692;239;26593;-67
2022/07/24 05:21:15;;;;;;;1.35;0.80;;;15.60;76.30;;;;;;601911;236;26832;-67
2022/07/24 05:23:43;;;;;;;0.70;0.70;;;15.70;76.20;;;;;;602773;235;26594;-67
2022/07/24 05:26:09;;;;;;;1.10;0.90;;;15.70;75.70;;;;;;603416;235;26822;-67
2022/07/24 05:28:36;;;;;;;0.70;0.70;;;15.80;75.50;;;;;;604126;235;26598;-67
2022/07/24 05:31:03;;;;;;;0.90;0.90;;;15.80;75.10;;;;;;612522;234;26862;-67
2022/07/24 05:33:31;;;;;;;0.90;0.90;;;15.80;74.60;;;;;;611160;234;26651;-66
2022/07/24 05:35:58;;;;;;;0.77;0.77;;;16.00;74.30;;;;;;607675;234;26864;-67
2022/07/24 05:38:25;;;;;;;0.80;0.80;;;16.10;73.80;;;;;;602337;235;26653;-68
2022/07/24 05:40:52;;;;;;;0.93;0.70;;;16.10;72.70;;;;;;602202;235;26982;-67
2022/07/24 05:43:20;;;;;;;0.98;0.75;;;16.20;72.40;;;;;;610925;234;26615;-67
2022/07/24 05:45:48;;;;;;;0.60;0.60;;;16.30;71.50;;;;;;610516;235;26594;-67
2022/07/24 05:48:16;;;;;;;0.80;0.80;;;16.30;71.10;;;;;;604908;235;26621;-67
2022/07/24 05:50:44;;;;;;;0.75;0.75;;;16.40;70.50;;;;;;604803;237;26607;-67
2022/07/24 05:53:11;;;;;;;2.25;0.73;;;16.40;70.60;;;;;;609139;234;26644;-67
2022/07/24 05:55:38;;;;;;;0.70;0.70;;;16.60;70.50;;;;;;601861;237;26586;-67
2022/07/24 05:58:05;;;;;;;0.50;0.50;;;16.60;69.30;;;;;;603260;237;26860;-67
2022/07/24 06:00:33;;;;;;;0.80;0.80;;;16.70;69.10;;;;;;604907;237;26605;-67
2022/07/24 06:03:00;;;;;;;0.73;0.73;;;16.70;69.10;;;;;;604927;237;26816;-67
2022/07/24 06:05:27;;;;;;;1.35;0.80;;;16.90;68.70;;;;;;604707;238;26591;-66
2022/07/24 06:07:54;;;;;;;0.70;0.70;;;16.90;68.40;;;;;;604654;237;26805;-65
2022/07/24 06:10:21;;;;;;;0.80;0.80;;;17.00;68.40;;;;;;603033;237;26606;-66
2022/07/24 06:12:49;;;;;;;0.68;0.68;;;17.20;67.20;;;;;;601536;239;27370;-66
2022/07/24 06:15:16;;;;;;;1.52;0.75;;;17.40;67.30;;;;;;601541;238;26605;-66
2022/07/24 06:17:44;;;;;;;1.23;0.70;;;17.20;66.90;;;;;;601593;237;26885;-66
2022/07/24 06:20:12;;;;;;;0.70;0.70;;;17.70;66.00;;;;;;601565;238;26554;-66
2022/07/24 06:22:40;;;;;;;0.50;0.50;;;17.70;66.70;;;;;;601563;239;26687;-66
2022/07/24 06:25:08;;;;;;;1.33;0.80;;;17.90;65.10;;;;;;601538;239;26549;-66
2022/07/24 06:27:35;;;;;;;0.60;0.60;;;17.90;64.40;;;;;;601687;238;26566;-66
2022/07/24 06:30:04;;;;;;;1.33;0.73;;;17.90;63.90;;;;;;601073;239;26598;-66
2022/07/24 06:32:31;;;;;;;0.65;0.65;;;17.90;63.90;;;;;;601626;238;26621;-66
2022/07/24 06:34:59;;;;;;;0.80;0.80;;;18.00;63.60;;;;;;601670;238;26846;-66
2022/07/24 06:37:26;;;;;;;0.73;0.70;;;18.00;63.30;;;;;;601661;237;26594;-66
2022/07/24 06:39:53;;;;;;;0.82;0.70;;;18.20;63.10;;;;;;601865;237;26828;-66
2022/07/24 06:42:20;;;;;;;3.05;0.80;;;18.30;62.70;;;;;;603063;237;26608;-66
2022/07/24 06:44:47;;;;;;;0.70;0.70;;;18.30;62.10;;;;;;602720;237;26840;-66
2022/07/24 06:47:15;;;;;;;0.75;0.75;;;18.40;62.00;;;;;;604504;237;26596;-66
2022/07/24 06:49:42;;;;;;;0.70;0.70;;;18.50;61.70;;;;;;605341;237;26723;-66
2022/07/24 06:52:10;;;;;;;0.55;0.55;;;18.70;61.60;;;;;;606739;235;26646;-67
2022/07/24 06:54:38;;;;;;;1.95;0.70;;;18.70;61.40;;;;;;604519;235;26660;-67
2022/07/24 06:57:06;;;;;;;4.40;0.90;;;18.70;61.20;;;;;;604540;235;26650;-67
2022/07/24 06:59:34;;;;;;;0.75;0.70;;;18.70;61.30;;;;;;605069;238;26647;-67
2022/07/24 07:02:01;;;;;;;0.90;0.80;;;18.70;61.10;;;;;;603169;237;26609;-67
2022/07/24 07:04:28;;;;;;;1.00;0.80;;;18.80;60.80;;;;;;609037;235;26649;-67
2022/07/24 07:06:56;;;;;;;0.77;0.77;;;18.80;60.70;;;;;;608303;235;26639;-67
2022/07/24 07:09:24;;;;;;;1.52;1.00;;;19.10;60.00;;;;;;604742;236;26815;-67
2022/07/24 07:11:50;;;;;;;0.95;0.70;;;19.30;59.50;;;;;;603085;234;26586;-67
2022/07/24 07:14:18;;;;;;;0.93;0.70;;;19.30;59.10;;;;;;604675;236;26586;-67
2022/07/24 07:16:45;;;;;;;1.48;0.60;;;19.40;59.10;;;;;;609512;235;26619;-67
2022/07/24 07:19:12;;;;;;;0.82;0.82;;;19.40;58.90;;;;;;606039;235;26572;-67
2022/07/24 07:21:39;;;;;;;1.00;0.80;;;19.40;58.80;;;;;;604605;238;27227;-66
2022/07/24 07:24:07;;;;;;;0.70;0.70;;;19.50;58.20;;;;;;608733;234;26599;-66
2022/07/24 07:26:34;;;;;;;0.82;0.80;;;19.40;57.90;;;;;;604064;236;26590;-66
2022/07/24 07:29:01;;;;;;;0.75;0.75;;;19.40;57.30;;;;;;601629;235;26807;-67
2022/07/24 07:31:28;;;;;;;1.15;0.80;;;19.50;57.80;;;;;;602383;235;26574;-66
2022/07/24 07:33:57;;;;;;;0.90;0.85;;;19.30;57.70;;;;;;605581;235;26931;-66
2022/07/24 07:36:23;;;;;;;1.02;0.62;;;19.40;57.80;;;;;;601645;238;26590;-66
2022/07/24 07:38:50;;;;;;;0.70;0.70;;;19.50;57.40;;;;;;601626;239;26812;-66
2022/07/24 07:41:19;;;;;;;1.65;0.70;;;19.70;57.50;;;;;;605744;235;26894;-66
2022/07/24 07:43:45;;;;;;;1.25;0.93;;;19.90;56.70;;;;;;604621;238;26579;-66
2022/07/24 07:46:12;;;;;;;0.80;0.80;;;19.90;56.70;;;;;;604284;235;26625;-67
2022/07/24 07:48:40;;;;;;;1.10;0.85;;;19.80;55.50;;;;;;601670;237;26578;-67
2022/07/24 07:51:08;;;;;;;0.65;0.65;;;19.90;55.60;;;;;;602538;236;26551;-67
2022/07/24 07:53:36;;;;;;;0.93;0.77;;;19.90;55.70;;;;;;608390;235;26627;-66
2022/07/24 07:56:05;;;;;;;0.62;0.62;;;20.10;55.90;;;;;;602717;237;26633;-66
2022/07/24 07:58:31;;;;;;;0.82;0.82;;;20.10;55.70;;;;;;603881;237;26547;-67
2022/07/24 08:00:59;;;;;;;1.12;0.95;;;20.40;54.40;;;;;;605409;237;26583;-67
2022/07/24 08:03:27;;;;;;;0.57;0.57;;;20.20;53.30;;;;;;605171;238;26621;-66
2022/07/24 08:05:54;;;;;;;0.80;0.80;;;20.20;53.20;;;;;;605277;238;26604;-66
2022/07/24 08:08:21;;;;;;;0.70;0.70;;;20.50;52.80;;;;;;605279;237;26595;-66
2022/07/24 08:10:49;;;;;;;0.80;0.80;;;20.40;51.00;;;;;;607749;236;26851;-67
2022/07/24 08:13:17;;;;;;;0.60;0.60;;;20.40;51.50;;;;;;610240;235;26663;-67
2022/07/24 08:15:44;;;;;;;0.82;0.70;;;20.30;52.40;;;;;;610190;236;26960;-67
2022/07/24 08:18:11;;;;;;;0.88;0.70;;;20.20;52.20;;;;;;610267;236;26653;-67
2022/07/24 08:20:38;;;;;;;1.73;0.90;;;20.40;52.50;;;;;;610206;236;26871;-67
2022/07/24 08:23:06;;;;;;;1.40;1.00;;;20.30;52.20;;;;;;610209;235;26636;-67
2022/07/24 08:25:33;;;;;;;1.52;0.70;;;20.40;52.00;;;;;;610300;236;26888;-67
2022/07/24 08:28:01;;;;;;;0.68;0.68;;;20.60;51.90;;;;;;610214;236;26630;-67
2022/07/24 08:30:29;;;;;;;0.60;0.60;;;20.60;50.80;;;;;;609999;236;26636;-67
2022/07/24 08:32:57;;;;;;;0.52;0.52;;;20.80;50.70;;;;;;606501;235;26569;-67
2022/07/24 08:35:25;;;;;;;0.70;0.70;;;20.90;50.70;;;;;;602706;235;26577;-67
2022/07/24 08:37:52;;;;;;;0.70;0.70;;;20.90;50.70;;;;;;604172;235;26632;-66
2022/07/24 08:40:19;;;;;;;0.80;0.80;;;20.80;50.90;;;;;;604953;235;26593;-67
2022/07/24 08:42:47;;;;;;;1.17;0.62;;;20.80;51.30;;;;;;607915;236;27362;-66
2022/07/24 08:45:15;;;;;;;0.70;0.70;;;20.80;51.40;;;;;;608746;235;26655;-65
2022/07/24 08:47:41;;;;;;;1.45;0.73;;;21.10;50.80;;;;;;612442;235;26935;-66
2022/07/24 08:50:09;;;;;;;1.42;0.55;;;21.10;50.20;;;;;;612450;235;26671;-66
2022/07/24 08:52:36;;;;;;;0.75;0.68;;;21.10;50.20;;;;;;606757;235;26655;-66
2022/07/24 08:55:04;;;;;;;0.75;0.75;;;21.20;49.90;;;;;;604890;236;26835;-67
2022/07/24 08:57:31;;;;;;;0.73;0.73;;;21.30;49.60;;;;;;605576;233;26817;-66
2022/07/24 08:59:59;;;;;;;1.00;0.70;;;21.40;49.00;;;;;;604509;235;26572;-67
2022/07/24 09:02:27;;;;;;;1.35;0.70;;;21.50;49.60;;;;;;605886;235;26964;-67
2022/07/24 09:04:54;;;;;;;0.80;0.80;;;21.50;49.20;;;;;;606938;234;26640;-67
2022/07/24 09:07:24;;;;;;;0.95;0.93;;;21.40;48.70;;;;;;604464;233;26651;-67
2022/07/24 09:10:01;;;;;;;1.85;0.80;;;21.50;48.80;;;;;;606809;234;27015;-68
2022/07/24 09:12:31;;;;;;;1.50;0.90;;;21.40;47.90;;;;;;606629;235;27019;-67
2022/07/24 09:14:59;;;;;;;0.70;0.70;;;21.60;48.40;;;;;;605377;235;27326;-68
2022/07/24 09:17:26;;;;;;;0.80;0.80;;;21.60;48.40;;;;;;603436;235;26877;-67
2022/07/24 09:19:53;;;;;;;0.62;0.62;;;21.70;48.50;;;;;;604705;235;26657;-68
2022/07/24 09:22:38;;;;;;;1.40;0.70;;;21.70;48.50;;;;;;606352;231;26620;-67
2022/07/24 09:25:08;;;;;;;1.62;0.80;;;21.80;47.70;;;;;;606019;235;26587;-67
2022/07/24 09:27:35;;;;;;;0.95;0.82;;;21.80;48.00;;;;;;606616;235;26608;-67
2022/07/24 09:30:02;;;;;;;0.68;0.68;;;21.90;48.40;;;;;;604588;235;26849;-67
2022/07/24 09:32:29;;;;;;;1.05;0.90;;;22.00;48.30;;;;;;603625;237;26585;-67
2022/07/24 09:34:57;;;;;;;0.68;0.68;;;22.00;48.80;;;;;;606022;236;26557;-67
2022/07/24 09:37:25;;;;;;;0.70;0.70;;;21.90;48.80;;;;;;606401;235;26599;-67
2022/07/24 09:39:52;;;;;;;0.80;0.62;;;22.00;49.00;;;;;;609542;236;26603;-67
2022/07/24 09:42:19;;;;;;;0.80;0.80;;;22.10;47.50;;;;;;606715;232;26894;-67
2022/07/24 09:44:47;;;;;;;1.52;1.10;;;22.00;46.90;;;;;;601795;238;26591;-67
2022/07/24 09:47:14;;;;;;;1.45;0.88;;;22.00;46.70;;;;;;602054;238;26590;-67
2022/07/24 09:49:42;;;;;;;0.80;0.80;;;22.20;47.90;;;;;;603797;238;26583;-67
2022/07/24 09:52:15;;;;;;;1.02;0.80;;;22.20;47.90;;;;;;601997;237;26805;-67
2022/07/24 09:54:43;;;;;;;0.80;0.80;;;22.20;47.90;;;;;;605448;235;26576;-67
2022/07/24 09:57:23;;;;;;;0.73;0.73;;;22.40;48.10;;;;;;606603;235;26644;-67
2022/07/24 09:59:51;;;;;;;0.90;0.90;;;22.50;48.00;;;;;;605622;234;26604;-67
2022/07/24 10:02:18;;;;;;;0.70;0.70;;;22.50;47.40;;;;;;603500;236;26887;-68
2022/07/24 10:04:45;;;;;;;1.00;0.65;;;22.50;47.30;;;;;;604917;235;26585;-67
2022/07/24 10:07:13;;;;;;;0.57;0.57;;;22.60;47.40;;;;;;601622;232;26547;-68
2022/07/24 10:09:41;;;;;;;0.90;0.90;;;22.60;46.50;;;;;;604201;236;26587;-68
2022/07/24 10:12:11;;;;;;;0.80;0.80;;;22.70;47.10;;;;;;605475;235;26604;-68
2022/07/24 10:14:38;;;;;;;0.85;0.82;;;22.60;47.30;;;;;;608307;234;26590;-68
2022/07/24 10:17:05;;;;;;;0.75;0.75;;;22.70;47.80;;;;;;605197;234;26585;-68
2022/07/24 10:19:42;;;;;;;0.80;0.80;;;22.80;47.90;;;;;;605806;234;26559;-68
2022/07/24 10:22:10;;;;;;;1.00;1.00;;;22.80;47.90;;;;;;603430;235;26585;-67
2022/07/24 10:24:57;;;;;;;1.25;1.10;;;23.00;47.70;;;;;;604518;235;26616;-66
2022/07/24 10:27:26;;;;;;;3.15;1.23;;;23.10;47.20;;;;;;602313;238;26613;-67
2022/07/24 10:29:54;;;;;;;1.52;1.30;;;23.00;47.40;;;;;;606540;235;26597;-68
2022/07/24 10:32:23;;;;;;;1.02;0.98;;;23.10;47.40;;;;;;605468;234;26652;-67
2022/07/24 10:34:52;;;;;;;3.08;1.20;;;23.10;47.40;;;;;;603676;236;26875;-67
2022/07/24 10:37:35;;;;;;;1.65;1.20;;;23.20;47.20;;;;;;606786;235;26671;-66
2022/07/24 10:40:06;;;;;;;2.35;1.35;;;23.30;47.80;;;;;;603146;236;26585;-68
2022/07/24 10:42:33;;;;;;;1.40;1.30;;;23.20;47.70;;;;;;606077;235;26613;-66
2022/07/24 10:45:22;;;;;;;1.77;1.37;;;23.40;47.30;;;;;;605308;235;26591;-66
2022/07/24 10:47:49;;;;;;;2.85;1.30;;;23.50;47.10;;;;;;604876;235;26578;-66
2022/07/24 10:50:18;;;;;;;2.85;1.40;;;23.60;46.80;;;;;;604215;236;26576;-66
2022/07/24 10:52:45;;;;;;;1.20;1.10;;;23.60;46.80;;;;;;605515;235;26604;-66
2022/07/24 10:55:22;;;;;;;1.20;0.80;;;23.80;47.30;;;;;;604566;235;26608;-66
2022/07/24 10:58:14;;;;;;;1.23;1.10;;;23.80;47.30;;;;;;604849;235;26582;-66
2022/07/24 11:00:40;;;;;;;2.03;0.93;;;23.90;46.40;;;;;;606109;235;26683;-66
2022/07/24 11:03:08;;;;;;;1.40;1.30;;;24.00;46.50;;;;;;603338;235;26601;-66
2022/07/24 11:05:35;;;;;;;2.35;1.35;;;24.00;46.40;;;;;;604067;235;26835;-66
2022/07/24 11:08:30;;;;;;;1.27;1.17;;;24.10;46.40;;;;;;604975;232;26582;-66
2022/07/24 11:10:54;;;;;;;1.90;1.40;;;24.20;46.10;;;;;;604121;235;26589;-66
2022/07/24 11:13:42;;;;;;;1.85;1.30;;;24.30;45.50;;;;;;604762;235;26612;-68
2022/07/24 11:16:20;;;;;;;4.60;1.65;;;24.30;45.40;;;;;;605337;234;27229;-69
2022/07/24 11:19:18;;;;;;;42.95;7.90;;;24.30;44.60;;;;;;603579;235;26597;-67
2022/07/24 11:21:46;;;;;;;58.75;12.68;;;24.30;44.60;;;;;;599040;235;26597;-67
2022/07/24 11:24:20;;;;;;;59.47;10.95;;;24.40;45.60;;;;;;604075;236;26610;-66
2022/07/24 11:26:50;;;;;;;47.10;10.38;;;24.40;45.60;;;;;;606942;235;26835;-68
2022/07/24 11:29:23;;;;;;;45.22;10.60;;;24.70;45.10;;;;;;606338;233;26622;-67
2022/07/24 11:31:49;;;;;;;43.08;10.70;;;24.80;45.30;;;;;;606825;235;26798;-66
2022/07/24 11:34:17;;;;;;;44.55;10.13;;;24.90;44.60;;;;;;605637;235;26638;-66
2022/07/24 11:36:44;;;;;;;25.30;5.70;;;25.00;44.60;;;;;;604325;235;26799;-65
2022/07/24 11:39:11;;;;;;;18.87;5.68;;;25.10;44.00;;;;;;604812;235;26647;-65
2022/07/24 11:41:46;;;;;;;26.73;6.25;;;25.20;44.10;;;;;;604357;235;27487;-65
2022/07/24 11:44:13;;;;;;;8.98;3.12;;;25.20;44.30;;;;;;605044;235;27020;-66
2022/07/24 11:46:40;;;;;;;2.05;1.87;;;25.10;43.80;;;;;;606929;235;26788;-67
2022/07/24 11:49:09;;;;;;;1.23;1.23;;;25.00;43.80;;;;;;603198;236;26585;-66
2022/07/24 11:51:41;;;;;;;2.37;1.35;;;25.20;44.70;;;;;;603481;235;26893;-67
2022/07/24 11:54:07;;;;;;;2.85;1.90;;;25.40;44.10;;;;;;605275;235;27285;-69
2022/07/24 11:56:36;;;;;;;2.72;1.80;;;25.60;43.60;;;;;;606160;235;26602;-69
2022/07/24 11:59:03;;;;;;;3.75;1.52;;;25.60;44.70;;;;;;605185;235;26573;-70
2022/07/24 12:01:30;;;;;;;1.62;1.40;;;25.70;43.80;;;;;;604986;235;26569;-70
2022/07/24 12:03:57;;;;;;;2.85;1.33;;;25.70;43.10;;;;;;603976;235;26650;-70
2022/07/24 12:06:25;;;;;;;1.25;1.20;;;25.80;43.10;;;;;;606420;235;26590;-69
2022/07/24 12:09:07;;;;;;;2.10;1.23;;;26.10;43.40;;;;;;604437;235;26574;-67
2022/07/24 12:11:35;;;;;;;1.52;1.40;;;26.00;43.40;;;;;;604042;235;26586;-70
2022/07/24 12:14:03;;;;;;;1.60;1.50;;;26.20;43.60;;;;;;605904;235;26837;-69
2022/07/24 12:16:30;;;;;;;2.90;1.50;;;26.30;43.40;;;;;;602756;235;26585;-69
2022/07/24 12:19:09;;;;;;;2.12;1.37;;;26.30;42.90;;;;;;604678;235;26594;-69
2022/07/24 12:21:36;;;;;;;1.23;1.20;;;26.30;42.90;;;;;;608148;235;26625;-69
2022/07/24 12:24:04;;;;;;;1.40;1.30;;;26.40;43.30;;;;;;602397;234;27118;-69
2022/07/24 12:26:32;;;;;;;3.47;1.27;;;26.60;42.30;;;;;;603128;236;26843;-69
2022/07/24 12:29:08;;;;;;;2.00;1.35;;;27.00;41.40;;;;;;603648;236;26575;-70
2022/07/24 12:31:35;;;;;;;2.28;1.50;;;27.00;41.40;;;;;;605441;235;26590;-69
2022/07/24 12:34:03;;;;;;;1.50;1.40;;;27.40;40.90;;;;;;603414;236;26826;-71
2022/07/24 12:36:29;;;;;;;1.42;1.20;;;27.50;40.40;;;;;;605739;235;26594;-69
2022/07/24 12:38:56;;;;;;;1.73;1.62;;;27.50;40.40;;;;;;609187;233;26645;-68
2022/07/24 12:41:25;;;;;;;1.73;1.30;;;27.80;40.30;;;;;;606050;235;26858;-69
2022/07/24 12:44:06;;;;;;;1.90;1.45;;;28.00;39.60;;;;;;604281;230;26674;-69
2022/07/24 12:46:33;;;;;;;1.45;1.35;;;28.40;39.60;;;;;;606808;235;26858;-69
2022/07/24 12:49:00;;;;;;;2.25;1.48;;;28.80;39.40;;;;;;604845;235;26692;-69
2022/07/24 12:51:40;;;;;;;1.17;1.17;;;29.20;37.50;;;;;;604669;234;26675;-69